createdAt,value
2019-02-21T00:00:24.146Z,60.70
2019-02-21T00:02:47.590Z,61.25
2019-02-21T00:05:14.449Z,60.93
2019-02-21T00:07:41.198Z,61.33
2019-02-21T00:10:08.106Z,61.56
2019-02-21T00:12:35.015Z,61.55
2019-02-21T00:15:02.115Z,61.67
2019-02-21T00:17:30.417Z,61.39
2019-02-21T00:19:57.542Z,61.57
2019-02-21T00:22:24.356Z,61.56
2019-02-21T00:24:51.158Z,62.11
2019-02-21T00:27:17.824Z,61.22
2019-02-21T00:29:44.530Z,61.60
2019-02-21T00:32:11.216Z,61.87
2019-02-21T00:34:38.147Z,62.37
2019-02-21T00:37:05.118Z,62.16
2019-02-21T00:39:32.239Z,62.12
2019-02-21T00:41:59.358Z,62.00
2019-02-21T00:44:26.462Z,62.22
2019-02-21T00:46:54.679Z,62.07
2019-02-21T00:49:21.851Z,62.58
2019-02-21T00:51:48.973Z,62.69
2019-02-21T00:55:12.335Z,62.77
2019-02-21T00:57:39.062Z,62.96
2019-02-21T01:00:11.456Z,63.36
2019-02-21T01:03:34.663Z,63.21
2019-02-21T01:06:01.768Z,63.43
2019-02-21T01:08:28.876Z,63.41
2019-02-21T01:10:55.511Z,63.58
2019-02-21T01:13:22.211Z,63.50
2019-02-21T01:15:48.783Z,63.58
2019-02-21T01:18:15.433Z,64.71
2019-02-21T01:20:42.126Z,64.25
2019-02-21T01:23:08.889Z,64.67
2019-02-21T01:25:35.452Z,64.41
2019-02-21T01:28:02.258Z,64.04
2019-02-21T01:30:29.013Z,64.61
2019-02-21T01:32:55.776Z,65.33
2019-02-21T01:35:22.413Z,64.94
2019-02-21T01:38:45.478Z,64.65
2019-02-21T01:41:12.507Z,64.85
2019-02-21T01:43:39.179Z,65.05
2019-02-21T01:46:05.732Z,65.12
2019-02-21T01:48:33.735Z,64.98
2019-02-21T01:51:00.399Z,65.36
2019-02-21T01:53:27.141Z,66.25
2019-02-21T01:55:53.745Z,66.10
2019-02-21T01:58:21.525Z,66.37
2019-02-21T02:00:48.150Z,66.25
2019-02-21T02:03:14.898Z,66.75
2019-02-21T02:05:41.564Z,67.00
2019-02-21T02:08:08.228Z,67.23
2019-02-21T02:10:34.822Z,67.68
2019-02-21T02:13:01.495Z,67.60
2019-02-21T02:15:28.338Z,67.20
2019-02-21T02:17:54.889Z,67.81
2019-02-21T02:20:21.534Z,68.04
2019-02-21T02:22:48.325Z,67.91
2019-02-21T02:25:14.937Z,67.78
2019-02-21T02:27:41.515Z,67.56
2019-02-21T02:30:08.504Z,68.56
2019-02-21T02:32:35.161Z,68.96
2019-02-21T02:35:03.026Z,68.87
2019-02-21T02:37:29.723Z,68.70
2019-02-21T02:39:56.400Z,69.30
2019-02-21T02:42:22.977Z,69.45
2019-02-21T02:44:49.557Z,68.84
2019-02-21T02:47:16.116Z,68.66
2019-02-21T02:49:42.701Z,69.04
2019-02-21T02:52:09.342Z,69.61
2019-02-21T02:54:35.982Z,70.16
2019-02-21T02:57:02.656Z,70.32
2019-02-21T02:59:40.388Z,69.71
2019-02-21T03:01:57.986Z,69.55
2019-02-21T03:04:24.767Z,69.41
2019-02-21T03:06:51.599Z,69.40
2019-02-21T03:09:18.275Z,69.28
2019-02-21T03:11:44.912Z,70.27
2019-02-21T03:14:11.493Z,69.78
2019-02-21T03:16:38.186Z,69.26
2019-02-21T03:19:04.907Z,69.95
2019-02-21T03:21:34.848Z,70.58
2019-02-21T03:24:04.472Z,69.83
2019-02-21T03:26:31.071Z,69.41
2019-02-21T03:28:57.714Z,69.78
2019-02-21T03:31:24.298Z,69.23
2019-02-21T03:33:51.070Z,69.75
2019-02-21T03:36:19.026Z,69.46
2019-02-21T03:38:46.408Z,70.22
2019-02-21T03:41:12.988Z,69.89
2019-02-21T03:43:39.714Z,70.05
2019-02-21T03:46:06.280Z,70.44
2019-02-21T03:48:32.970Z,69.96
2019-02-21T03:50:59.544Z,69.54
2019-02-21T03:53:26.133Z,69.17
2019-02-21T03:55:53.053Z,69.39
2019-02-21T03:58:19.822Z,69.64
2019-02-21T04:00:46.750Z,69.49
2019-02-21T04:03:13.602Z,69.21
2019-02-21T04:05:40.902Z,69.42
2019-02-21T04:08:07.551Z,69.81
2019-02-21T04:10:35.343Z,69.45
2019-02-21T04:13:02.407Z,68.66
2019-02-21T04:15:29.494Z,69.37
2019-02-21T04:17:57.446Z,69.71
2019-02-21T04:20:24.111Z,69.15
2019-02-21T04:22:50.809Z,69.34
2019-02-21T04:25:17.369Z,69.13
2019-02-21T04:27:44.098Z,69.50
2019-02-21T04:30:10.744Z,69.71
2019-02-21T04:32:37.297Z,69.44
2019-02-21T04:35:04.817Z,69.37
2019-02-21T04:37:31.744Z,69.48
2019-02-21T04:39:58.535Z,69.52
2019-02-21T04:42:25.178Z,69.11
2019-02-21T04:44:52.944Z,69.36
2019-02-21T04:47:19.537Z,69.43
2019-02-21T04:49:46.085Z,69.70
2019-02-21T04:52:12.664Z,70.27
2019-02-21T04:54:39.242Z,70.83
2019-02-21T04:57:05.881Z,70.62
2019-02-21T04:59:32.835Z,70.74
2019-02-21T05:01:59.459Z,70.75
2019-02-21T05:04:26.015Z,70.72
2019-02-21T05:06:52.945Z,70.50
2019-02-21T05:09:19.561Z,70.52
2019-02-21T05:11:46.195Z,70.21
2019-02-21T05:14:12.842Z,71.20
2019-02-21T05:16:39.636Z,71.27
2019-02-21T05:19:06.314Z,71.41
2019-02-21T05:21:33.045Z,71.85
2019-02-21T05:23:59.622Z,72.69
2019-02-21T05:26:28.260Z,72.36
2019-02-21T05:28:54.906Z,72.95
2019-02-21T05:31:23.533Z,72.76
2019-02-21T05:33:52.238Z,72.89
2019-02-21T05:36:20.732Z,73.06
2019-02-21T05:38:49.303Z,73.24
2019-02-21T05:41:17.933Z,73.37
2019-02-21T05:43:46.440Z,73.96
2019-02-21T05:46:15.487Z,74.31
2019-02-21T05:48:44.088Z,75.08
2019-02-21T05:51:12.685Z,74.43
2019-02-21T05:53:41.207Z,74.68
2019-02-21T05:56:09.758Z,74.71
2019-02-21T05:58:38.248Z,74.61
2019-02-21T06:01:07.045Z,75.17
2019-02-21T06:03:36.171Z,75.03
2019-02-21T06:06:05.154Z,74.92
2019-02-21T06:08:33.703Z,74.66
2019-02-21T06:11:02.215Z,75.29
2019-02-21T06:13:30.790Z,75.79
2019-02-21T06:15:59.430Z,75.52
2019-02-21T06:18:29.109Z,75.19
2019-02-21T06:20:57.913Z,75.08
2019-02-21T06:23:26.515Z,75.99
2019-02-21T06:25:58.828Z,76.37
2019-02-21T06:28:27.001Z,76.59
2019-02-21T06:30:55.517Z,76.91
2019-02-21T06:33:22.163Z,77.04
2019-02-21T06:36:44.998Z,76.75
2019-02-21T06:39:11.772Z,76.50
2019-02-21T06:41:38.474Z,77.01
2019-02-21T06:44:05.192Z,77.02
2019-02-21T06:46:31.786Z,77.46
2019-02-21T06:48:58.482Z,78.22
2019-02-21T06:51:25.113Z,78.63
2019-02-21T06:53:53.159Z,77.65
2019-02-21T06:56:21.551Z,78.31
2019-02-21T06:58:48.098Z,77.92
2019-02-21T07:01:25.409Z,78.17
2019-02-21T07:03:43.361Z,78.00
2019-02-21T07:06:09.990Z,77.84
2019-02-21T07:08:36.547Z,77.80
2019-02-21T07:11:06.331Z,77.67
2019-02-21T07:13:31.793Z,77.07
2019-02-21T07:15:58.683Z,77.17
2019-02-21T07:18:25.525Z,78.57
2019-02-21T07:20:52.409Z,79.03
2019-02-21T07:23:19.437Z,79.21
2019-02-21T07:25:47.707Z,79.44
2019-02-21T07:28:15.957Z,79.56
2019-02-21T07:30:43.100Z,78.63
2019-02-21T07:33:10.019Z,78.43
2019-02-21T07:35:36.684Z,78.50
2019-02-21T07:38:03.582Z,78.49
2019-02-21T07:40:30.302Z,78.17
2019-02-21T07:42:58.728Z,78.32
2019-02-21T07:45:25.414Z,77.87
2019-02-21T07:47:52.704Z,77.74
2019-02-21T07:50:19.546Z,77.99
2019-02-21T07:52:46.127Z,77.82
2019-02-21T07:55:13.033Z,77.48
2019-02-21T07:57:39.900Z,78.24
2019-02-21T08:00:10.888Z,78.20
2019-02-21T08:02:37.477Z,78.30
2019-02-21T08:05:06.702Z,78.47
2019-02-21T08:07:33.316Z,78.39
2019-02-21T08:09:59.905Z,78.36
2019-02-21T08:12:26.534Z,78.16
2019-02-21T08:14:56.149Z,78.19
2019-02-21T08:17:21.921Z,78.57
2019-02-21T08:19:48.550Z,78.04
2019-02-21T08:22:15.292Z,77.91
2019-02-21T08:24:42.071Z,78.18
2019-02-21T08:27:08.688Z,78.17
2019-02-21T08:29:35.271Z,78.54
2019-02-21T08:32:01.892Z,77.63
2019-02-21T08:34:30.533Z,77.89
2019-02-21T08:36:57.333Z,78.14
2019-02-21T08:39:24.140Z,78.81
2019-02-21T08:41:51.091Z,78.89
2019-02-21T08:44:17.847Z,78.57
2019-02-21T08:46:44.408Z,77.83
2019-02-21T08:49:11.159Z,77.71
2019-02-21T08:51:37.996Z,77.70
2019-02-21T08:54:05.654Z,77.26
2019-02-21T08:56:32.883Z,78.22
2019-02-21T08:58:59.442Z,78.51
2019-02-21T09:01:26.081Z,77.85
2019-02-21T09:03:53.000Z,78.06
2019-02-21T09:06:19.682Z,77.64
2019-02-21T09:08:46.213Z,77.68
2019-02-21T09:11:14.377Z,77.66
2019-02-21T09:13:41.806Z,77.93
2019-02-21T09:16:09.087Z,78.56
2019-02-21T09:18:35.910Z,77.99
2019-02-21T09:21:02.755Z,78.59
2019-02-21T09:23:30.773Z,78.55
2019-02-21T09:25:57.537Z,78.48
2019-02-21T09:28:24.404Z,78.07
2019-02-21T09:31:47.633Z,78.07
2019-02-21T09:34:21.101Z,78.29
2019-02-21T09:36:42.941Z,77.91
2019-02-21T09:39:09.907Z,78.03
2019-02-21T09:42:33.139Z,78.30
2019-02-21T09:44:59.882Z,78.48
2019-02-21T09:47:26.519Z,78.10
2019-02-21T09:49:53.309Z,77.05
2019-02-21T09:52:20.066Z,77.34
2019-02-21T09:54:47.610Z,77.75
2019-02-21T09:57:14.598Z,78.34
2019-02-21T09:59:41.343Z,78.11
2019-02-21T10:02:08.013Z,78.15
2019-02-21T10:05:32.498Z,78.16
2019-02-21T10:07:59.306Z,78.26
2019-02-21T10:10:25.941Z,78.50
2019-02-21T10:12:52.875Z,78.50
2019-02-21T10:16:15.650Z,78.45
2019-02-21T10:18:42.498Z,77.49
2019-02-21T10:22:06.350Z,77.88
2019-02-21T10:24:33.007Z,78.65
2019-02-21T10:27:18.672Z,77.78
2019-02-21T10:29:45.314Z,77.72
2019-02-21T10:32:12.081Z,77.58
2019-02-21T10:34:43.120Z,77.70
2019-02-21T10:37:07.266Z,78.20
2019-02-21T10:39:33.831Z,79.08
2019-02-21T10:42:00.576Z,78.25
2019-02-21T10:44:27.185Z,78.04
2019-02-21T10:46:53.878Z,77.56
2019-02-21T10:49:20.725Z,78.33
2019-02-21T10:51:47.706Z,78.18
2019-02-21T10:54:14.476Z,77.79
2019-02-21T10:56:41.202Z,78.28
2019-02-21T10:59:08.016Z,78.20
2019-02-21T11:01:34.637Z,77.96
2019-02-21T11:04:01.204Z,78.40
2019-02-21T11:06:28.031Z,78.48
2019-02-21T11:08:54.695Z,78.03
2019-02-21T11:11:21.631Z,78.24
2019-02-21T11:13:48.399Z,78.98
2019-02-21T11:16:15.100Z,77.31
2019-02-21T11:18:43.033Z,78.11
2019-02-21T11:21:10.791Z,77.51
2019-02-21T11:23:37.434Z,77.83
2019-02-21T11:26:04.085Z,77.70
2019-02-21T11:28:30.770Z,77.46
2019-02-21T11:30:57.570Z,77.08
2019-02-21T11:33:24.310Z,77.53
2019-02-21T11:35:51.227Z,76.95
2019-02-21T11:38:17.843Z,77.65
2019-02-21T11:40:44.600Z,77.24
2019-02-21T11:43:11.225Z,76.68
2019-02-21T11:45:37.865Z,76.74
2019-02-21T11:48:04.915Z,76.72
2019-02-21T11:50:31.572Z,77.06
2019-02-21T11:52:58.288Z,77.69
2019-02-21T11:55:25.181Z,77.04
2019-02-21T11:57:52.097Z,77.56
2019-02-21T12:00:24.623Z,77.75
2019-02-21T12:02:51.497Z,76.99
2019-02-21T12:05:30.152Z,78.51
2019-02-21T12:07:47.660Z,78.01
2019-02-21T12:10:14.363Z,77.73
2019-02-21T12:12:41.295Z,78.45
2019-02-21T12:15:10.960Z,77.74
2019-02-21T12:17:37.888Z,77.40
2019-02-21T12:20:09.379Z,77.52
2019-02-21T12:22:36.297Z,77.96
2019-02-21T12:25:09.013Z,76.93
2019-02-21T12:27:35.737Z,77.00
2019-02-21T12:30:07.309Z,77.64
2019-02-21T12:32:33.974Z,77.38
2019-02-21T12:35:00.715Z,78.15
2019-02-21T12:37:27.323Z,77.71
2019-02-21T12:39:57.022Z,77.00
2019-02-21T12:42:23.803Z,77.56
2019-02-21T12:44:52.025Z,78.98
2019-02-21T12:47:18.817Z,78.02
2019-02-21T12:49:45.376Z,77.83
2019-02-21T12:52:12.022Z,78.02
2019-02-21T12:54:38.730Z,77.65
2019-02-21T12:57:05.341Z,77.82
2019-02-21T12:59:32.155Z,78.81
2019-02-21T13:01:58.899Z,77.52
2019-02-21T13:04:25.656Z,78.57
2019-02-21T13:06:52.331Z,78.39
2019-02-21T13:09:19.041Z,77.93
2019-02-21T13:11:45.646Z,78.36
2019-02-21T13:14:12.210Z,78.40
2019-02-21T13:16:38.963Z,77.45
2019-02-21T13:19:05.847Z,78.56
2019-02-21T13:21:32.465Z,77.97
2019-02-21T13:23:59.155Z,77.84
2019-02-21T13:26:25.840Z,78.58
2019-02-21T13:28:52.510Z,78.07
2019-02-21T13:31:20.451Z,79.03
2019-02-21T13:33:47.072Z,79.10
2019-02-21T13:36:13.819Z,78.57
2019-02-21T13:38:40.447Z,78.78
2019-02-21T13:41:07.212Z,78.74
2019-02-21T13:43:34.996Z,78.27
2019-02-21T13:46:01.632Z,78.56
2019-02-21T13:48:28.300Z,78.21
2019-02-21T13:50:54.881Z,78.64
2019-02-21T13:53:21.706Z,79.13
2019-02-21T13:55:50.881Z,78.80
2019-02-21T13:58:16.840Z,78.73
2019-02-21T14:00:43.512Z,78.70
2019-02-21T14:03:10.187Z,78.37
2019-02-21T14:05:36.809Z,77.84
2019-02-21T14:08:03.629Z,77.61
2019-02-21T14:10:30.421Z,77.73
2019-02-21T14:12:57.089Z,77.27
2019-02-21T14:15:28.008Z,77.46
2019-02-21T14:17:54.744Z,77.48
2019-02-21T14:20:21.434Z,77.72
2019-02-21T14:22:48.004Z,77.68
2019-02-21T14:25:14.709Z,77.87
2019-02-21T14:27:41.720Z,78.30
2019-02-21T14:30:13.263Z,77.79
2019-02-21T14:32:39.836Z,77.07
2019-02-21T14:36:14.764Z,77.61
2019-02-21T14:38:31.636Z,77.34
2019-02-21T14:40:59.419Z,76.76
2019-02-21T14:43:26.058Z,76.39
2019-02-21T14:45:52.882Z,76.71
2019-02-21T14:48:19.655Z,77.43
2019-02-21T14:50:46.596Z,77.75
2019-02-21T14:53:13.165Z,77.58
2019-02-21T14:55:39.853Z,78.13
2019-02-21T14:58:06.608Z,78.37
2019-02-21T15:00:33.607Z,77.73
2019-02-21T15:03:00.285Z,77.57
2019-02-21T15:05:27.112Z,78.60
2019-02-21T15:07:54.000Z,77.76
2019-02-21T15:10:21.549Z,77.94
2019-02-21T15:12:49.479Z,77.81
2019-02-21T15:15:22.190Z,77.21
2019-02-21T15:17:49.110Z,77.83
2019-02-21T15:20:17.210Z,78.02
2019-02-21T15:22:44.176Z,78.53
2019-02-21T15:25:11.206Z,77.69
2019-02-21T15:27:38.352Z,77.94
2019-02-21T15:30:13.316Z,77.42
2019-02-21T15:32:40.335Z,76.95
2019-02-21T15:35:07.337Z,77.92
2019-02-21T15:37:34.023Z,77.64
2019-02-21T15:40:00.648Z,77.34
2019-02-21T15:42:27.417Z,77.86
2019-02-21T15:44:54.088Z,77.86
2019-02-21T15:47:20.825Z,77.28
2019-02-21T15:49:47.486Z,77.87
2019-02-21T15:52:21.892Z,79.03
2019-02-21T15:54:42.683Z,78.10
2019-02-21T15:57:09.316Z,78.71
2019-02-21T15:59:36.196Z,78.00
2019-02-21T16:02:02.957Z,77.89
2019-02-21T16:04:29.518Z,77.54
2019-02-21T16:06:56.173Z,78.11
2019-02-21T16:09:25.116Z,77.93
2019-02-21T16:11:51.755Z,77.99
2019-02-21T16:15:16.369Z,78.23
2019-02-21T16:17:44.533Z,77.85
2019-02-21T16:21:07.659Z,78.49
2019-02-21T16:23:34.468Z,77.48
2019-02-21T16:26:02.419Z,78.40
2019-02-21T16:28:29.580Z,78.46
2019-02-21T16:30:56.268Z,78.55
2019-02-21T16:33:22.923Z,77.99
2019-02-21T16:35:50.271Z,78.48
2019-02-21T16:38:17.216Z,78.23
2019-02-21T16:40:44.111Z,78.88
2019-02-21T16:43:11.080Z,78.88
2019-02-21T16:45:43.394Z,79.19
2019-02-21T16:48:06.154Z,79.73
2019-02-21T16:50:32.857Z,79.34
2019-02-21T16:52:59.511Z,79.16
2019-02-21T16:55:26.588Z,78.41
2019-02-21T16:57:53.384Z,78.37
2019-02-21T17:00:22.487Z,77.47
2019-02-21T17:02:49.628Z,77.74
2019-02-21T17:05:16.727Z,77.71
2019-02-21T17:07:43.590Z,77.68
2019-02-21T17:10:13.651Z,78.69
2019-02-21T17:12:40.426Z,78.62
2019-02-21T17:15:11.235Z,78.20
2019-02-21T17:17:38.024Z,78.40
2019-02-21T17:20:10.378Z,78.67
2019-02-21T17:22:37.204Z,78.73
2019-02-21T17:25:08.378Z,78.35
2019-02-21T17:27:35.298Z,78.61
2019-02-21T17:30:07.884Z,78.07
2019-02-21T17:32:34.761Z,78.38
2019-02-21T17:35:01.635Z,77.97
2019-02-21T17:37:28.559Z,77.89
2019-02-21T17:39:56.463Z,78.38
2019-02-21T17:43:38.525Z,78.30
2019-02-21T17:46:05.525Z,77.92
2019-02-21T17:48:32.345Z,78.42
2019-02-21T17:50:59.161Z,77.92
2019-02-21T17:53:26.997Z,78.14
2019-02-21T17:55:53.974Z,77.81
2019-02-21T17:58:20.753Z,77.71
2019-02-21T18:00:47.628Z,78.02
2019-02-21T18:03:14.440Z,77.88
2019-02-21T18:05:41.056Z,78.09
2019-02-21T18:08:09.823Z,78.05
2019-02-21T18:10:37.642Z,78.39
2019-02-21T18:13:04.782Z,77.87
2019-02-21T18:15:33.108Z,78.68
2019-02-21T18:18:03.296Z,78.20
2019-02-21T18:20:29.975Z,78.69
2019-02-21T18:22:56.935Z,78.84
2019-02-21T18:25:29.199Z,78.79
2019-02-21T18:27:56.001Z,78.66
2019-02-21T18:30:22.976Z,78.38
2019-02-21T18:32:49.882Z,78.63
2019-02-21T18:35:16.857Z,78.64
2019-02-21T18:37:47.444Z,78.33
2019-02-21T18:40:20.893Z,78.72
2019-02-21T18:42:47.621Z,79.34
2019-02-21T18:45:14.475Z,79.12
2019-02-21T18:47:41.212Z,79.68
2019-02-21T18:50:11.165Z,79.96
2019-02-21T18:52:37.986Z,80.07
2019-02-21T18:55:06.683Z,80.05
2019-02-21T18:57:36.491Z,80.42
2019-02-21T19:00:08.472Z,80.19
2019-02-21T19:02:36.056Z,80.90
2019-02-21T19:05:05.786Z,80.38
2019-02-21T19:07:32.575Z,81.15
2019-02-21T19:10:02.173Z,80.79
2019-02-21T19:12:29.023Z,80.42
2019-02-21T19:14:55.823Z,80.25
2019-02-21T19:17:22.489Z,79.88
2019-02-21T19:19:49.098Z,79.41
2019-02-21T19:22:17.128Z,80.43
2019-02-21T19:24:43.699Z,79.65
2019-02-21T19:27:10.397Z,79.73
2019-02-21T19:29:37.104Z,79.09
2019-02-21T19:32:04.969Z,79.21
2019-02-21T19:34:32.237Z,79.39
2019-02-21T19:36:59.237Z,79.70
2019-02-21T19:39:26.294Z,80.13
2019-02-21T19:41:53.989Z,80.85
2019-02-21T19:44:22.351Z,81.20
2019-02-21T19:46:49.462Z,80.99
2019-02-21T19:49:16.695Z,80.65
2019-02-21T19:51:43.497Z,80.25
2019-02-21T19:54:10.336Z,80.17
2019-02-21T19:56:46.021Z,80.25
2019-02-21T19:59:15.232Z,81.05
2019-02-21T20:01:42.727Z,80.18
2019-02-21T20:04:09.757Z,81.03
2019-02-21T20:06:37.527Z,80.02
2019-02-21T20:09:04.609Z,79.11
2019-02-21T20:11:42.556Z,79.55
2019-02-21T20:14:34.315Z,79.41
2019-02-21T20:17:02.274Z,79.76
2019-02-21T20:19:44.162Z,80.48
2019-02-21T20:22:20.697Z,79.76
2019-02-21T20:24:53.160Z,78.55
2019-02-21T20:27:22.623Z,79.10
2019-02-21T20:29:49.461Z,78.73
2019-02-21T20:32:17.561Z,79.20
2019-02-21T20:34:44.352Z,79.43
2019-02-21T20:37:11.469Z,80.38
2019-02-21T20:39:38.374Z,80.36
2019-02-21T20:42:07.175Z,80.06
2019-02-21T20:44:34.350Z,80.14
2019-02-21T20:47:01.194Z,79.60
2019-02-21T20:49:28.213Z,79.88
2019-02-21T20:51:55.335Z,80.50
2019-02-21T20:54:22.668Z,79.89
2019-02-21T20:56:50.205Z,80.52
2019-02-21T20:59:30.069Z,80.99
2019-02-21T21:02:00.852Z,80.54
2019-02-21T21:04:27.982Z,79.72
2019-02-21T21:06:55.343Z,79.91
2019-02-21T21:09:22.192Z,79.89
2019-02-21T21:11:49.486Z,78.68
2019-02-21T21:14:16.267Z,79.56
2019-02-21T21:16:46.359Z,78.85
2019-02-21T21:19:14.121Z,78.88
2019-02-21T21:21:40.796Z,78.39
2019-02-21T21:24:08.027Z,79.32
2019-02-21T21:26:34.684Z,79.32
2019-02-21T21:29:01.381Z,79.66
2019-02-21T21:31:28.098Z,78.93
2019-02-21T21:33:55.147Z,77.14
2019-02-21T21:36:23.548Z,77.97
2019-02-21T21:38:54.317Z,78.53
2019-02-21T21:41:21.517Z,78.12
2019-02-21T21:43:48.191Z,78.96
2019-02-21T21:46:14.893Z,78.67
2019-02-21T21:48:42.769Z,77.62
2019-02-21T21:51:10.025Z,78.44
2019-02-21T21:53:37.475Z,78.49
2019-02-21T21:56:04.341Z,78.85
2019-02-21T21:58:31.078Z,78.83
2019-02-21T22:01:00.236Z,78.80
2019-02-21T22:03:26.945Z,78.53
2019-02-21T22:05:53.779Z,77.89
2019-02-21T22:08:20.613Z,78.72
2019-02-21T22:10:47.606Z,78.85
2019-02-21T22:13:14.726Z,77.60
2019-02-21T22:15:41.821Z,78.47
2019-02-21T22:18:08.843Z,78.18
2019-02-21T22:20:35.964Z,78.54
2019-02-21T22:23:03.097Z,79.77
2019-02-21T22:25:31.236Z,78.97
2019-02-21T22:27:58.549Z,79.02
2019-02-21T22:30:25.724Z,77.92
2019-02-21T22:32:53.005Z,79.02
2019-02-21T22:35:20.091Z,79.19
2019-02-21T22:37:47.308Z,78.80
2019-02-21T22:40:16.629Z,78.91
2019-02-21T22:42:44.794Z,78.73
2019-02-21T22:45:12.251Z,78.71
2019-02-21T22:47:39.473Z,78.31
2019-02-21T22:50:11.946Z,78.79
2019-02-21T22:52:39.018Z,79.13
2019-02-21T22:55:10.152Z,78.70
2019-02-21T22:57:36.481Z,78.87
2019-02-21T23:00:09.114Z,78.00
2019-02-21T23:02:38.063Z,78.52
2019-02-21T23:05:10.762Z,78.80
2019-02-21T23:07:38.318Z,78.62
2019-02-21T23:10:05.466Z,78.71
2019-02-21T23:12:33.095Z,78.52
2019-02-21T23:15:00.464Z,78.45
2019-02-21T23:17:27.813Z,78.03
2019-02-21T23:19:55.043Z,78.25
2019-02-21T23:22:22.152Z,77.56
2019-02-21T23:24:49.290Z,77.43
2019-02-21T23:27:16.411Z,77.77
2019-02-21T23:29:43.559Z,77.10
2019-02-21T23:32:10.720Z,77.91
2019-02-21T23:34:39.388Z,78.49
2019-02-21T23:37:06.579Z,78.26
2019-02-21T23:39:38.454Z,77.86
2019-02-21T23:42:02.768Z,77.20
2019-02-21T23:44:29.920Z,76.41
2019-02-21T23:46:56.996Z,77.78
2019-02-21T23:49:24.124Z,77.18
2019-02-21T23:51:51.736Z,77.00
2019-02-21T23:54:18.775Z,78.37
2019-02-21T23:56:45.902Z,78.58
2019-02-21T23:59:13.135Z,77.76
